sensor_id;sensor_type;location;lat;lon;timestamp;pressure;altitude;pressure_sealevel;temperature;humidity
43488;BME280;29078;41.932;25.554;2023-03-18T00:00:40;100060.97;;;8.61;47.98
43488;BME280;29078;41.932;25.554;2023-03-18T00:03:06;100078.16;;;8.73;48.11
43488;BME280;29078;41.932;25.554;2023-03-18T00:05:33;100135.03;;;9.02;48.74
43488;BME280;29078;41.932;25.554;2023-03-18T00:07:59;100130.59;;;9.02;48.65
43488;BME280;29078;41.932;25.554;2023-03-18T00:10:26;100083.59;;;8.72;49.03
43488;BME280;29078;41.932;25.554;2023-03-18T00:12:51;100071.50;;;8.61;48.62
43488;BME280;29078;41.932;25.554;2023-03-18T00:15:18;100070.97;;;8.57;49.10
43488;BME280;29078;41.932;25.554;2023-03-18T00:17:44;100124.59;;;8.92;48.91
43488;BME280;29078;41.932;25.554;2023-03-18T00:20:12;100115.56;;;8.95;48.78
43488;BME280;29078;41.932;25.554;2023-03-18T00:22:39;100060.59;;;8.56;49.08
43488;BME280;29078;41.932;25.554;2023-03-18T00:25:07;100010.97;;;8.25;48.92
43488;BME280;29078;41.932;25.554;2023-03-18T00:27:33;100122.78;;;8.93;48.80
43488;BME280;29078;41.932;25.554;2023-03-18T00:30:00;100089.91;;;8.79;48.99
43488;BME280;29078;41.932;25.554;2023-03-18T00:32:26;100109.59;;;8.93;48.98
43488;BME280;29078;41.932;25.554;2023-03-18T00:34:52;100060.66;;;8.64;48.76
43488;BME280;29078;41.932;25.554;2023-03-18T00:37:19;100105.00;;;8.77;49.13
43488;BME280;29078;41.932;25.554;2023-03-18T00:39:56;100065.63;;;8.67;48.68
43488;BME280;29078;41.932;25.554;2023-03-18T00:42:22;100059.09;;;8.53;49.13
43488;BME280;29078;41.932;25.554;2023-03-18T00:44:48;100015.22;;;8.36;49.20
43488;BME280;29078;41.932;25.554;2023-03-18T00:47:13;100092.59;;;8.87;49.49
43488;BME280;29078;41.932;25.554;2023-03-18T00:49:38;99961.44;;;8.03;49.50
43488;BME280;29078;41.932;25.554;2023-03-18T00:52:04;99628.16;;;6.04;49.16
43488;BME280;29078;41.932;25.554;2023-03-18T00:54:29;100037.13;;;8.63;49.43
43488;BME280;29078;41.932;25.554;2023-03-18T00:56:55;100042.84;;;8.58;49.08
43488;BME280;29078;41.932;25.554;2023-03-18T00:59:22;99990.91;;;8.24;49.42
43488;BME280;29078;41.932;25.554;2023-03-18T01:01:48;100095.38;;;8.85;49.25
43488;BME280;29078;41.932;25.554;2023-03-18T01:04:13;100002.78;;;8.28;48.87
43488;BME280;29078;41.932;25.554;2023-03-18T01:06:39;100009.19;;;8.44;48.88
43488;BME280;29078;41.932;25.554;2023-03-18T01:09:06;100078.13;;;8.91;48.75
43488;BME280;29078;41.932;25.554;2023-03-18T01:11:34;100035.69;;;8.68;48.96
43488;BME280;29078;41.932;25.554;2023-03-18T01:14:00;100079.56;;;8.85;48.82
43488;BME280;29078;41.932;25.554;2023-03-18T01:16:26;100071.53;;;8.87;48.77
43488;BME280;29078;41.932;25.554;2023-03-18T01:18:51;100016.09;;;8.45;48.25
43488;BME280;29078;41.932;25.554;2023-03-18T01:21:17;100022.72;;;8.49;48.29
43488;BME280;29078;41.932;25.554;2023-03-18T01:23:43;100068.22;;;8.85;48.20
43488;BME280;29078;41.932;25.554;2023-03-18T01:26:09;100068.88;;;8.87;48.79
43488;BME280;29078;41.932;25.554;2023-03-18T01:28:35;100064.59;;;8.86;48.94
43488;BME280;29078;41.932;25.554;2023-03-18T01:31:01;100070.19;;;8.83;48.57
43488;BME280;29078;41.932;25.554;2023-03-18T01:33:26;100061.44;;;8.82;49.03
43488;BME280;29078;41.932;25.554;2023-03-18T01:35:55;100071.97;;;8.82;48.55
43488;BME280;29078;41.932;25.554;2023-03-18T01:38:22;100065.22;;;8.80;48.96
43488;BME280;29078;41.932;25.554;2023-03-18T01:40:49;100068.00;;;8.78;49.07
43488;BME280;29078;41.932;25.554;2023-03-18T01:43:21;100017.38;;;8.41;48.58
43488;BME280;29078;41.932;25.554;2023-03-18T01:45:50;99975.03;;;8.16;48.72
43488;BME280;29078;41.932;25.554;2023-03-18T01:48:18;100020.22;;;8.47;48.64
43488;BME280;29078;41.932;25.554;2023-03-18T01:50:47;99983.75;;;8.17;48.70
43488;BME280;29078;41.932;25.554;2023-03-18T01:53:15;100045.47;;;8.58;48.72
43488;BME280;29078;41.932;25.554;2023-03-18T01:55:42;100071.09;;;8.74;48.51
43488;BME280;29078;41.932;25.554;2023-03-18T01:58:31;100076.66;;;8.71;48.64
43488;BME280;29078;41.932;25.554;2023-03-18T02:01:04;100061.63;;;8.63;48.82
43488;BME280;29078;41.932;25.554;2023-03-18T02:03:32;100089.53;;;8.74;48.73
43488;BME280;29078;41.932;25.554;2023-03-18T02:05:58;100024.16;;;8.43;48.63
43488;BME280;29078;41.932;25.554;2023-03-18T02:08:24;100075.00;;;8.70;48.98
43488;BME280;29078;41.932;25.554;2023-03-18T02:10:50;100007.81;;;8.22;48.77
43488;BME280;29078;41.932;25.554;2023-03-18T02:13:16;100048.78;;;8.24;49.27
43488;BME280;29078;41.932;25.554;2023-03-18T02:15:52;100023.13;;;8.09;49.35
43488;BME280;29078;41.932;25.554;2023-03-18T02:18:30;100059.59;;;8.21;49.85
43488;BME280;29078;41.932;25.554;2023-03-18T02:29:05;99976.22;;;7.51;50.71
43488;BME280;29078;41.932;25.554;2023-03-18T02:31:34;100041.97;;;7.86;50.83
43488;BME280;29078;41.932;25.554;2023-03-18T02:34:00;100037.84;;;7.84;50.93
43488;BME280;29078;41.932;25.554;2023-03-18T02:36:28;100071.72;;;7.87;51.11
43488;BME280;29078;41.932;25.554;2023-03-18T02:38:56;100006.03;;;7.59;50.84
43488;BME280;29078;41.932;25.554;2023-03-18T02:41:25;100047.97;;;7.79;50.80
43488;BME280;29078;41.932;25.554;2023-03-18T02:43:52;100074.28;;;7.96;50.87
43488;BME280;29078;41.932;25.554;2023-03-18T02:48:45;100073.69;;;8.03;51.12
43488;BME280;29078;41.932;25.554;2023-03-18T02:51:13;100075.19;;;8.05;51.00
43488;BME280;29078;41.932;25.554;2023-03-18T02:53:40;100003.41;;;7.59;51.40
43488;BME280;29078;41.932;25.554;2023-03-18T02:56:06;100077.31;;;8.02;51.15
43488;BME280;29078;41.932;25.554;2023-03-18T02:58:33;100033.47;;;7.75;50.75
43488;BME280;29078;41.932;25.554;2023-03-18T03:00:58;100028.50;;;7.72;50.63
43488;BME280;29078;41.932;25.554;2023-03-18T03:03:24;100041.00;;;7.87;51.14
43488;BME280;29078;41.932;25.554;2023-03-18T03:05:50;100029.13;;;7.83;50.61
43488;BME280;29078;41.932;25.554;2023-03-18T03:08:17;100087.47;;;8.14;51.12
43488;BME280;29078;41.932;25.554;2023-03-18T03:10:43;100075.13;;;8.15;51.26
43488;BME280;29078;41.932;25.554;2023-03-18T03:13:08;100076.94;;;8.14;51.36
43488;BME280;29078;41.932;25.554;2023-03-18T03:15:35;100064.97;;;8.02;51.21
43488;BME280;29078;41.932;25.554;2023-03-18T03:18:02;100070.09;;;8.04;51.08
43488;BME280;29078;41.932;25.554;2023-03-18T03:20:29;100020.91;;;7.69;52.14
43488;BME280;29078;41.932;25.554;2023-03-18T03:22:58;100070.16;;;7.94;51.66
43488;BME280;29078;41.932;25.554;2023-03-18T03:25:23;100090.44;;;8.02;51.60
43488;BME280;29078;41.932;25.554;2023-03-18T03:27:51;100079.53;;;7.96;52.11
43488;BME280;29078;41.932;25.554;2023-03-18T03:30:17;100005.16;;;7.41;52.00
43488;BME280;29078;41.932;25.554;2023-03-18T03:32:43;100068.41;;;7.85;51.78
43488;BME280;29078;41.932;25.554;2023-03-18T03:35:11;100082.63;;;7.92;51.95
43488;BME280;29078;41.932;25.554;2023-03-18T03:37:37;99967.66;;;7.21;52.46
43488;BME280;29078;41.932;25.554;2023-03-18T03:40:02;100026.31;;;7.40;52.54
43488;BME280;29078;41.932;25.554;2023-03-18T03:42:30;100038.75;;;7.47;52.17
43488;BME280;29078;41.932;25.554;2023-03-18T03:44:55;100009.91;;;7.28;52.87
43488;BME280;29078;41.932;25.554;2023-03-18T03:47:21;100055.88;;;7.51;52.88
43488;BME280;29078;41.932;25.554;2023-03-18T03:49:46;100096.31;;;7.68;52.91
43488;BME280;29078;41.932;25.554;2023-03-18T03:52:11;100044.69;;;7.40;52.84
43488;BME280;29078;41.932;25.554;2023-03-18T03:54:37;100078.06;;;7.67;52.87
43488;BME280;29078;41.932;25.554;2023-03-18T03:57:05;100041.91;;;7.41;52.65
43488;BME280;29078;41.932;25.554;2023-03-18T03:59:32;100057.97;;;7.38;52.71
43488;BME280;29078;41.932;25.554;2023-03-18T04:01:57;100090.88;;;7.42;53.36
43488;BME280;29078;41.932;25.554;2023-03-18T04:04:23;100025.22;;;7.05;53.55
43488;BME280;29078;41.932;25.554;2023-03-18T04:06:48;100065.50;;;7.23;53.48
43488;BME280;29078;41.932;25.554;2023-03-18T04:09:14;100052.94;;;7.17;53.86
43488;BME280;29078;41.932;25.554;2023-03-18T04:11:39;100061.22;;;7.22;53.78
43488;BME280;29078;41.932;25.554;2023-03-18T04:14:05;100055.44;;;7.19;54.14
43488;BME280;29078;41.932;25.554;2023-03-18T04:16:31;100062.06;;;7.23;53.34
43488;BME280;29078;41.932;25.554;2023-03-18T04:18:56;100084.53;;;7.35;53.38
43488;BME280;29078;41.932;25.554;2023-03-18T04:21:22;100086.34;;;7.34;53.53
43488;BME280;29078;41.932;25.554;2023-03-18T04:23:47;100075.03;;;7.24;54.26
43488;BME280;29078;41.932;25.554;2023-03-18T04:26:12;100071.06;;;7.11;53.88
43488;BME280;29078;41.932;25.554;2023-03-18T04:28:38;100068.44;;;7.11;53.99
43488;BME280;29078;41.932;25.554;2023-03-18T04:31:03;100072.72;;;7.12;53.81
43488;BME280;29078;41.932;25.554;2023-03-18T04:33:29;100065.03;;;7.00;53.57
43488;BME280;29078;41.932;25.554;2023-03-18T04:35:56;100092.75;;;7.13;54.22
43488;BME280;29078;41.932;25.554;2023-03-18T04:38:22;100085.06;;;7.01;53.70
43488;BME280;29078;41.932;25.554;2023-03-18T04:40:48;100043.25;;;6.71;54.16
43488;BME280;29078;41.932;25.554;2023-03-18T04:43:14;100077.03;;;7.03;53.42
43488;BME280;29078;41.932;25.554;2023-03-18T04:45:39;100097.44;;;7.19;53.95
43488;BME280;29078;41.932;25.554;2023-03-18T04:48:05;100023.38;;;6.78;53.37
43488;BME280;29078;41.932;25.554;2023-03-18T04:50:30;100021.03;;;6.75;53.38
43488;BME280;29078;41.932;25.554;2023-03-18T04:52:56;100043.50;;;6.68;53.47
43488;BME280;29078;41.932;25.554;2023-03-18T04:55:22;100102.44;;;7.12;53.96
43488;BME280;29078;41.932;25.554;2023-03-18T04:57:48;100067.97;;;6.88;53.45
43488;BME280;29078;41.932;25.554;2023-03-18T05:00:17;100100.25;;;7.08;53.06
43488;BME280;29078;41.932;25.554;2023-03-18T05:02:45;100109.09;;;7.07;53.71
43488;BME280;29078;41.932;25.554;2023-03-18T05:05:10;99723.75;;;4.67;53.17
43488;BME280;29078;41.932;25.554;2023-03-18T05:07:36;100091.59;;;6.88;53.13
43488;BME280;29078;41.932;25.554;2023-03-18T05:10:03;100106.03;;;7.11;53.47
43488;BME280;29078;41.932;25.554;2023-03-18T05:12:31;100067.13;;;6.87;53.35
43488;BME280;29078;41.932;25.554;2023-03-18T05:14:56;100063.81;;;6.85;52.99
43488;BME280;29078;41.932;25.554;2023-03-18T05:17:22;100040.50;;;6.73;52.97
43488;BME280;29078;41.932;25.554;2023-03-18T05:19:47;100048.91;;;6.66;52.79
43488;BME280;29078;41.932;25.554;2023-03-18T05:22:14;100107.44;;;7.06;53.32
43488;BME280;29078;41.932;25.554;2023-03-18T05:24:41;100030.69;;;6.55;52.51
43488;BME280;29078;41.932;25.554;2023-03-18T05:27:08;100098.31;;;7.10;52.47
43488;BME280;29078;41.932;25.554;2023-03-18T05:29:35;100093.88;;;7.10;52.48
43488;BME280;29078;41.932;25.554;2023-03-18T05:32:03;100097.91;;;7.05;53.23
43488;BME280;29078;41.932;25.554;2023-03-18T05:34:32;100106.31;;;7.08;52.97
43488;BME280;29078;41.932;25.554;2023-03-18T05:36:57;100020.75;;;6.49;53.19
43488;BME280;29078;41.932;25.554;2023-03-18T05:39:23;100103.56;;;7.10;52.96
43488;BME280;29078;41.932;25.554;2023-03-18T05:41:48;100027.25;;;6.55;52.61
43488;BME280;29078;41.932;25.554;2023-03-18T05:44:14;100083.72;;;6.88;52.57
43488;BME280;29078;41.932;25.554;2023-03-18T05:46:39;100013.19;;;6.46;52.20
43488;BME280;29078;41.932;25.554;2023-03-18T05:49:04;100097.09;;;6.94;52.90
43488;BME280;29078;41.932;25.554;2023-03-18T05:51:30;100119.72;;;7.15;52.29
43488;BME280;29078;41.932;25.554;2023-03-18T05:53:56;100095.00;;;6.98;52.32
43488;BME280;29078;41.932;25.554;2023-03-18T05:56:22;100120.53;;;7.15;52.36
43488;BME280;29078;41.932;25.554;2023-03-18T05:58:49;100047.66;;;6.61;52.79
43488;BME280;29078;41.932;25.554;2023-03-18T06:01:15;100052.78;;;6.72;52.08
43488;BME280;29078;41.932;25.554;2023-03-18T06:03:40;100046.72;;;6.72;52.60
43488;BME280;29078;41.932;25.554;2023-03-18T06:06:06;100118.75;;;7.16;52.97
43488;BME280;29078;41.932;25.554;2023-03-18T06:08:33;100077.59;;;6.97;52.48
43488;BME280;29078;41.932;25.554;2023-03-18T06:10:58;100122.56;;;7.31;52.84
43488;BME280;29078;41.932;25.554;2023-03-18T06:13:23;100077.00;;;7.13;52.74
43488;BME280;29078;41.932;25.554;2023-03-18T06:15:55;100064.31;;;7.08;52.32
43488;BME280;29078;41.932;25.554;2023-03-18T06:18:21;100051.91;;;7.00;52.36
43488;BME280;29078;41.932;25.554;2023-03-18T06:20:47;100020.00;;;6.95;51.72
43488;BME280;29078;41.932;25.554;2023-03-18T06:23:12;100115.34;;;7.52;51.78
43488;BME280;29078;41.932;25.554;2023-03-18T06:25:39;100116.81;;;7.64;51.40
43488;BME280;29078;41.932;25.554;2023-03-18T06:28:05;100041.00;;;7.32;51.29
43488;BME280;29078;41.932;25.554;2023-03-18T06:30:32;100115.97;;;7.91;51.08
43488;BME280;29078;41.932;25.554;2023-03-18T06:32:58;100080.34;;;7.79;50.67
43488;BME280;29078;41.932;25.554;2023-03-18T06:35:24;100114.06;;;8.11;50.88
43488;BME280;29078;41.932;25.554;2023-03-18T06:37:52;100117.78;;;8.18;50.09
43488;BME280;29078;41.932;25.554;2023-03-18T06:40:18;100113.56;;;8.25;49.87
43488;BME280;29078;41.932;25.554;2023-03-18T06:42:44;100103.84;;;8.36;49.42
43488;BME280;29078;41.932;25.554;2023-03-18T06:45:10;100046.28;;;8.05;48.74
43488;BME280;29078;41.932;25.554;2023-03-18T06:47:36;100118.44;;;8.48;49.01
43488;BME280;29078;41.932;25.554;2023-03-18T06:50:01;100067.44;;;8.31;48.28
43488;BME280;29078;41.932;25.554;2023-03-18T06:52:27;100025.09;;;8.07;48.19
43488;BME280;29078;41.932;25.554;2023-03-18T06:54:53;100109.53;;;8.67;47.84
43488;BME280;29078;41.932;25.554;2023-03-18T06:57:18;100084.97;;;8.58;47.66
43488;BME280;29078;41.932;25.554;2023-03-18T06:59:45;100093.22;;;8.63;47.47
43488;BME280;29078;41.932;25.554;2023-03-18T07:02:11;100044.00;;;8.38;47.25
43488;BME280;29078;41.932;25.554;2023-03-18T07:04:37;100037.59;;;8.40;46.71
43488;BME280;29078;41.932;25.554;2023-03-18T07:07:02;100110.28;;;8.95;46.89
43488;BME280;29078;41.932;25.554;2023-03-18T07:09:28;100087.63;;;8.84;46.68
43488;BME280;29078;41.932;25.554;2023-03-18T07:11:55;100005.88;;;8.42;46.15
43488;BME280;29078;41.932;25.554;2023-03-18T07:14:21;100084.31;;;9.00;46.10
43488;BME280;29078;41.932;25.554;2023-03-18T07:16:47;100118.28;;;9.11;45.78
43488;BME280;29078;41.932;25.554;2023-03-18T07:19:13;100030.09;;;8.71;45.05
43488;BME280;29078;41.932;25.554;2023-03-18T07:21:39;100062.94;;;9.03;45.08
43488;BME280;29078;41.932;25.554;2023-03-18T07:24:06;100101.53;;;9.46;44.50
43488;BME280;29078;41.932;25.554;2023-03-18T07:26:31;100035.13;;;9.08;44.27
43488;BME280;29078;41.932;25.554;2023-03-18T07:28:57;100013.41;;;9.06;44.04
43488;BME280;29078;41.932;25.554;2023-03-18T07:31:22;100084.31;;;9.60;44.16
43488;BME280;29078;41.932;25.554;2023-03-18T07:33:49;100128.59;;;9.82;43.87
43488;BME280;29078;41.932;25.554;2023-03-18T07:36:15;100113.94;;;9.87;43.64
43488;BME280;29078;41.932;25.554;2023-03-18T07:38:40;100117.28;;;9.98;43.01
43488;BME280;29078;41.932;25.554;2023-03-18T07:41:06;100116.63;;;10.04;42.77
43488;BME280;29078;41.932;25.554;2023-03-18T07:43:31;100103.28;;;10.05;42.72
43488;BME280;29078;41.932;25.554;2023-03-18T07:45:57;100047.13;;;9.71;42.34
43488;BME280;29078;41.932;25.554;2023-03-18T07:48:23;100113.50;;;10.08;42.38
43488;BME280;29078;41.932;25.554;2023-03-18T07:50:48;100084.44;;;9.92;42.29
43488;BME280;29078;41.932;25.554;2023-03-18T07:53:14;100091.56;;;10.08;42.12
43488;BME280;29078;41.932;25.554;2023-03-18T07:55:39;100111.44;;;10.28;42.54
43488;BME280;29078;41.932;25.554;2023-03-18T07:58:06;100117.03;;;10.25;42.15
43488;BME280;29078;41.932;25.554;2023-03-18T08:00:33;100089.28;;;10.13;42.04
43488;BME280;29078;41.932;25.554;2023-03-18T08:02:58;100106.00;;;10.30;42.21
43488;BME280;29078;41.932;25.554;2023-03-18T08:05:24;100120.56;;;10.42;41.40
43488;BME280;29078;41.932;25.554;2023-03-18T08:07:49;100121.22;;;10.44;41.76
43488;BME280;29078;41.932;25.554;2023-03-18T08:10:15;100073.28;;;10.14;41.81
43488;BME280;29078;41.932;25.554;2023-03-18T08:12:41;100127.19;;;10.54;41.08
43488;BME280;29078;41.932;25.554;2023-03-18T08:15:07;100129.97;;;10.53;41.45
43488;BME280;29078;41.932;25.554;2023-03-18T08:17:34;100132.47;;;10.54;41.24
43488;BME280;29078;41.932;25.554;2023-03-18T08:20:00;100129.16;;;10.52;41.37
43488;BME280;29078;41.932;25.554;2023-03-18T08:22:25;100144.00;;;10.45;40.78
43488;BME280;29078;41.932;25.554;2023-03-18T08:24:51;100129.16;;;10.44;40.94
43488;BME280;29078;41.932;25.554;2023-03-18T08:27:17;100132.13;;;10.41;40.96
43488;BME280;29078;41.932;25.554;2023-03-18T08:29:42;100103.34;;;10.22;41.16
43488;BME280;29078;41.932;25.554;2023-03-18T08:32:09;100044.53;;;9.87;41.12
43488;BME280;29078;41.932;25.554;2023-03-18T08:34:35;100050.00;;;9.94;40.83
43488;BME280;29078;41.932;25.554;2023-03-18T08:37:00;100107.66;;;10.31;40.61
43488;BME280;29078;41.932;25.554;2023-03-18T08:39:26;100085.38;;;10.25;40.87
43488;BME280;29078;41.932;25.554;2023-03-18T08:41:52;100060.75;;;10.08;40.87
43488;BME280;29078;41.932;25.554;2023-03-18T08:44:17;100132.97;;;10.58;40.90
43488;BME280;29078;41.932;25.554;2023-03-18T08:46:43;100103.41;;;10.54;40.75
43488;BME280;29078;41.932;25.554;2023-03-18T08:49:09;100074.69;;;10.43;40.36
43488;BME280;29078;41.932;25.554;2023-03-18T08:51:34;100118.28;;;10.88;39.39
43488;BME280;29078;41.932;25.554;2023-03-18T08:54:00;100121.06;;;10.94;39.31
43488;BME280;29078;41.932;25.554;2023-03-18T08:56:26;100107.53;;;10.89;38.65
43488;BME280;29078;41.932;25.554;2023-03-18T08:58:52;100131.66;;;10.94;39.25
43488;BME280;29078;41.932;25.554;2023-03-18T09:01:18;100129.34;;;10.91;38.70
43488;BME280;29078;41.932;25.554;2023-03-18T09:03:47;100139.75;;;10.93;38.63
43488;BME280;29078;41.932;25.554;2023-03-18T09:06:12;100062.78;;;10.39;38.55
43488;BME280;29078;41.932;25.554;2023-03-18T09:08:38;100094.50;;;10.55;38.71
43488;BME280;29078;41.932;25.554;2023-03-18T09:11:04;100125.38;;;10.63;38.56
43488;BME280;29078;41.932;25.554;2023-03-18T09:13:32;100055.84;;;10.22;38.84
43488;BME280;29078;41.932;25.554;2023-03-18T09:15:57;100082.25;;;10.30;38.31
43488;BME280;29078;41.932;25.554;2023-03-18T09:18:23;100132.47;;;10.54;38.69
43488;BME280;29078;41.932;25.554;2023-03-18T09:20:49;100151.25;;;10.43;38.49
43488;BME280;29078;41.932;25.554;2023-03-18T09:23:15;100156.16;;;10.38;38.53
43488;BME280;29078;41.932;25.554;2023-03-18T09:25:43;100150.06;;;10.37;38.67
43488;BME280;29078;41.932;25.554;2023-03-18T09:28:09;100148.06;;;10.31;38.83
43488;BME280;29078;41.932;25.554;2023-03-18T09:30:34;100097.28;;;9.87;38.81
43488;BME280;29078;41.932;25.554;2023-03-18T09:33:00;100099.56;;;9.82;39.30
43488;BME280;29078;41.932;25.554;2023-03-18T09:35:26;100099.59;;;9.90;39.50
43488;BME280;29078;41.932;25.554;2023-03-18T09:37:53;100012.72;;;9.38;39.43
43488;BME280;29078;41.932;25.554;2023-03-18T09:40:30;100086.38;;;9.82;39.41
43488;BME280;29078;41.932;25.554;2023-03-18T09:51:47;100151.75;;;10.04;41.13
43488;BME280;29078;41.932;25.554;2023-03-18T09:54:41;100157.50;;;10.00;41.20
43488;BME280;29078;41.932;25.554;2023-03-18T09:57:18;100158.28;;;9.92;41.63
43488;BME280;29078;41.932;25.554;2023-03-18T09:59:50;100171.50;;;9.92;41.29
43488;BME280;29078;41.932;25.554;2023-03-18T10:02:39;100163.91;;;9.89;41.01
43488;BME280;29078;41.932;25.554;2023-03-18T10:05:15;100164.41;;;9.93;41.01
43488;BME280;29078;41.932;25.554;2023-03-18T10:07:42;100137.16;;;9.84;41.04
43488;BME280;29078;41.932;25.554;2023-03-18T10:12:46;100166.41;;;9.99;40.66
43488;BME280;29078;41.932;25.554;2023-03-18T10:15:22;100166.41;;;9.99;40.16
43488;BME280;29078;41.932;25.554;2023-03-18T10:31:21;100162.56;;;10.27;38.27
43488;BME280;29078;41.932;25.554;2023-03-18T10:33:57;100127.25;;;10.20;38.84
43488;BME280;29078;41.932;25.554;2023-03-18T10:39:34;100087.47;;;10.13;38.65
43488;BME280;29078;41.932;25.554;2023-03-18T10:42:20;100112.59;;;10.26;38.20
43488;BME280;29078;41.932;25.554;2023-03-18T10:44:46;100105.09;;;10.13;38.79
43488;BME280;29078;41.932;25.554;2023-03-18T10:47:21;100148.94;;;10.48;37.58
43488;BME280;29078;41.932;25.554;2023-03-18T10:50:03;100075.56;;;10.01;38.52
43488;BME280;29078;41.932;25.554;2023-03-18T10:55:01;100111.09;;;10.23;38.23
43488;BME280;29078;41.932;25.554;2023-03-18T10:57:27;100095.38;;;10.13;38.60
43488;BME280;29078;41.932;25.554;2023-03-18T10:59:52;100093.06;;;10.18;38.52
43488;BME280;29078;41.932;25.554;2023-03-18T11:02:24;100128.84;;;10.55;38.49
43488;BME280;29078;41.932;25.554;2023-03-18T11:05:00;100129.50;;;10.57;38.44
43488;BME280;29078;41.932;25.554;2023-03-18T11:07:29;100075.66;;;10.34;38.70
43488;BME280;29078;41.932;25.554;2023-03-18T11:10:10;100126.19;;;10.63;37.65
43488;BME280;29078;41.932;25.554;2023-03-18T11:12:36;100063.28;;;10.34;37.96
43488;BME280;29078;41.932;25.554;2023-03-18T11:15:06;100111.00;;;10.73;38.08
43488;BME280;29078;41.932;25.554;2023-03-18T11:17:35;100112.50;;;10.76;37.82
43488;BME280;29078;41.932;25.554;2023-03-18T11:22:33;100106.06;;;10.87;38.12
43488;BME280;29078;41.932;25.554;2023-03-18T11:25:15;100108.03;;;10.93;37.43
43488;BME280;29078;41.932;25.554;2023-03-18T11:27:42;100106.56;;;10.90;38.11
43488;BME280;29078;41.932;25.554;2023-03-18T11:30:20;100097.13;;;10.88;36.98
43488;BME280;29078;41.932;25.554;2023-03-18T11:32:56;100105.56;;;10.91;37.72
43488;BME280;29078;41.932;25.554;2023-03-18T11:35:53;100085.09;;;10.93;37.47
43488;BME280;29078;41.932;25.554;2023-03-18T11:38:32;100102.75;;;11.01;36.72
43488;BME280;29078;41.932;25.554;2023-03-18T11:41:22;100011.66;;;10.48;36.35
43488;BME280;29078;41.932;25.554;2023-03-18T11:46:22;100064.44;;;10.89;37.13
43488;BME280;29078;41.932;25.554;2023-03-18T11:48:49;100020.53;;;10.79;36.31
43488;BME280;29078;41.932;25.554;2023-03-18T11:57:31;100086.34;;;11.38;34.83
43488;BME280;29078;41.932;25.554;2023-03-18T12:05:53;100077.94;;;11.73;34.74
43488;BME280;29078;41.932;25.554;2023-03-18T12:11:03;100003.59;;;11.29;32.76
43488;BME280;29078;41.932;25.554;2023-03-18T12:26:59;99997.84;;;11.18;33.81
43488;BME280;29078;41.932;25.554;2023-03-18T12:30:10;100006.03;;;11.39;33.05
43488;BME280;29078;41.932;25.554;2023-03-18T12:32:51;100072.97;;;11.78;33.95
43488;BME280;29078;41.932;25.554;2023-03-18T12:43:30;100054.88;;;11.98;33.39
43488;BME280;29078;41.932;25.554;2023-03-18T12:48:53;100063.53;;;11.76;33.37
43488;BME280;29078;41.932;25.554;2023-03-18T12:51:24;100017.53;;;11.54;33.88
43488;BME280;29078;41.932;25.554;2023-03-18T12:53:56;100038.09;;;11.75;33.20
43488;BME280;29078;41.932;25.554;2023-03-18T12:56:24;99993.47;;;11.72;33.45
43488;BME280;29078;41.932;25.554;2023-03-18T12:59:37;100045.25;;;12.05;33.73
43488;BME280;29078;41.932;25.554;2023-03-18T13:04:32;99969.66;;;11.72;34.03
43488;BME280;29078;41.932;25.554;2023-03-18T13:07:15;100034.06;;;12.18;33.30
43488;BME280;29078;41.932;25.554;2023-03-18T13:09:53;99998.41;;;11.75;34.19
43488;BME280;29078;41.932;25.554;2023-03-18T13:12:38;100051.00;;;12.09;33.91
43488;BME280;29078;41.932;25.554;2023-03-18T13:15:29;100000.66;;;11.94;33.46
43488;BME280;29078;41.932;25.554;2023-03-18T13:17:58;100031.31;;;12.12;33.94
43488;BME280;29078;41.932;25.554;2023-03-18T13:20:32;100034.84;;;12.27;33.55
43488;BME280;29078;41.932;25.554;2023-03-18T13:23:15;99971.72;;;11.93;33.83
43488;BME280;29078;41.932;25.554;2023-03-18T13:26:08;100039.44;;;12.33;33.97
43488;BME280;29078;41.932;25.554;2023-03-18T13:44:46;100019.66;;;12.81;32.44
43488;BME280;29078;41.932;25.554;2023-03-18T13:47:22;100012.44;;;12.90;32.13
43488;BME280;29078;41.932;25.554;2023-03-18T13:49:48;100022.97;;;13.13;32.69
43488;BME280;29078;41.932;25.554;2023-03-18T13:52:49;100026.56;;;13.34;32.53
43488;BME280;29078;41.932;25.554;2023-03-18T13:55:40;100022.38;;;13.40;31.71
43488;BME280;29078;41.932;25.554;2023-03-18T14:00:45;99943.19;;;13.22;31.80
43488;BME280;29078;41.932;25.554;2023-03-18T14:08:35;99986.47;;;13.95;30.68
43488;BME280;29078;41.932;25.554;2023-03-18T14:11:42;99984.56;;;14.10;29.72
43488;BME280;29078;41.932;25.554;2023-03-18T14:14:52;99973.75;;;14.12;29.20
43488;BME280;29078;41.932;25.554;2023-03-18T14:17:25;99999.03;;;14.44;29.43
43488;BME280;29078;41.932;25.554;2023-03-18T14:19:53;99947.16;;;14.26;30.31
43488;BME280;29078;41.932;25.554;2023-03-18T14:22:33;99996.78;;;14.69;29.76
43488;BME280;29078;41.932;25.554;2023-03-18T14:32:58;99997.38;;;14.92;30.00
43488;BME280;29078;41.932;25.554;2023-03-18T14:35:27;99983.72;;;15.02;29.98
43488;BME280;29078;41.932;25.554;2023-03-18T14:37:59;99950.97;;;14.67;29.36
43488;BME280;29078;41.932;25.554;2023-03-18T14:40:29;99961.41;;;14.68;29.94
43488;BME280;29078;41.932;25.554;2023-03-18T14:42:59;99990.34;;;14.84;29.72
43488;BME280;29078;41.932;25.554;2023-03-18T14:45:35;99928.47;;;14.41;29.08
43488;BME280;29078;41.932;25.554;2023-03-18T14:48:05;99987.81;;;14.76;29.76
43488;BME280;29078;41.932;25.554;2023-03-18T14:50:41;99973.72;;;14.76;29.51
43488;BME280;29078;41.932;25.554;2023-03-18T14:55:42;99962.94;;;14.56;29.58
43488;BME280;29078;41.932;25.554;2023-03-18T14:58:15;99968.31;;;14.62;28.73